Time;durP1;ratioP1;P1;durP2;ratioP2;P2;SDS_P1;SDS_P2;PMS_P1;PMS_P2;Temp;Humidity;BMP_temperature;BMP_pressure;BME280_temperature;BME280_humidity;BME280_pressure;Samples;Min_cycle;Max_cycle;Signal;HPM_P1;HPM_P2
2024/01/18 00:00:30;;;;;;;14.03;8.27;;;-2.30;99.90;;;;;;5002612;28;20216;-64
2024/01/18 00:02:58;;;;;;;10.57;7.60;;;-3.20;99.90;;;;;;5023930;28;20395;-64
2024/01/18 00:05:25;;;;;;;15.13;9.07;;;-2.30;99.90;;;;;;5040430;28;20206;-64
2024/01/18 00:07:52;;;;;;;15.57;7.77;;;-2.30;99.90;;;;;;5022428;28;20757;-64
2024/01/18 00:10:23;;;;;;;12.67;8.73;;;-2.20;99.90;;;;;;5038495;28;20583;-64
2024/01/18 00:12:50;;;;;;;13.73;7.17;;;-2.20;99.90;;;;;;5036081;28;20201;-64
2024/01/18 00:15:17;;;;;;;12.20;8.13;;;-2.10;99.90;;;;;;5046461;28;20230;-63
2024/01/18 00:17:44;;;;;;;17.97;8.17;;;-2.10;99.90;;;;;;5004297;28;20218;-64
2024/01/18 00:20:12;;;;;;;11.17;8.07;;;-2.00;99.90;;;;;;5038617;28;20427;-63
2024/01/18 00:22:39;;;;;;;16.33;8.57;;;-2.00;99.90;;;;;;5031376;28;20313;-63
2024/01/18 00:25:08;;;;;;;14.03;8.50;;;-1.70;99.90;;;;;;5038432;28;20439;-63
2024/01/18 00:27:34;;;;;;;14.67;8.73;;;-2.40;99.90;;;;;;5031958;28;20229;-63
2024/01/18 00:30:01;;;;;;;10.30;7.47;;;-2.10;99.90;;;;;;5036386;28;20193;-63
2024/01/18 00:32:28;;;;;;;12.57;8.97;;;-2.00;99.90;;;;;;5007728;28;20212;-63
2024/01/18 00:34:55;;;;;;;16.83;9.03;;;;;;;;;;5040037;28;20229;-63
2024/01/18 00:37:24;;;;;;;11.90;8.60;;;-2.10;99.90;;;;;;5034142;28;20223;-64
2024/01/18 00:39:51;;;;;;;11.40;7.83;;;-2.00;99.90;;;;;;5040940;28;20202;-64
2024/01/18 00:42:18;;;;;;;12.33;7.87;;;-2.00;99.90;;;;;;5041248;28;20198;-63
2024/01/18 00:44:44;;;;;;;16.17;8.40;;;-1.90;99.90;;;;;;5029908;28;20901;-64
2024/01/18 00:47:11;;;;;;;12.53;8.17;;;-2.00;99.90;;;;;;4988245;28;20839;-64
2024/01/18 00:49:38;;;;;;;14.33;8.70;;;-2.00;99.90;;;;;;5042678;28;20208;-64
2024/01/18 00:52:05;;;;;;;12.27;8.20;;;-0.90;99.90;;;;;;5035765;28;20321;-63
2024/01/18 00:54:34;;;;;;;11.10;7.70;;;-2.30;99.90;;;;;;5029581;28;20454;-63
2024/01/18 00:57:00;;;;;;;13.00;8.37;;;-2.60;99.90;;;;;;5045812;28;20199;-64
2024/01/18 00:59:29;;;;;;;12.63;8.30;;;-2.20;99.90;;;;;;5033255;28;20199;-63
2024/01/18 01:01:56;;;;;;;12.70;8.37;;;-2.30;99.90;;;;;;5019569;28;20682;-64
2024/01/18 01:04:22;;;;;;;13.83;8.57;;;-2.20;99.90;;;;;;5000314;28;20642;-63
2024/01/18 01:06:49;;;;;;;14.93;8.17;;;-2.40;99.90;;;;;;5034584;28;20234;-64
2024/01/18 01:09:16;;;;;;;13.73;7.60;;;-2.50;99.90;;;;;;5029598;28;20246;-63
2024/01/18 01:11:45;;;;;;;12.43;8.03;;;-2.40;99.90;;;;;;5036920;28;20354;-64
2024/01/18 01:14:12;;;;;;;12.00;7.17;;;-2.20;99.90;;;;;;5032727;28;20209;-63
2024/01/18 01:16:38;;;;;;;10.93;7.97;;;-2.10;99.90;;;;;;5036174;28;20915;-64
2024/01/18 01:19:05;;;;;;;12.30;7.13;;;-2.20;99.90;;;;;;5005052;28;20684;-64
2024/01/18 01:21:32;;;;;;;10.40;7.83;;;-2.40;99.90;;;;;;5031337;28;20201;-64
2024/01/18 01:23:59;;;;;;;13.13;7.67;;;;;;;;;;5031601;28;20198;-64
2024/01/18 01:26:26;;;;;;;13.33;7.43;;;-2.20;99.90;;;;;;5034772;28;20203;-63
2024/01/18 01:28:54;;;;;;;10.80;7.63;;;-2.10;99.90;;;;;;5040579;28;20203;-64
2024/01/18 01:31:21;;;;;;;18.43;9.87;;;-2.20;99.90;;;;;;5024213;28;20207;-63
2024/01/18 01:33:49;;;;;;;12.23;8.23;;;-2.10;99.90;;;;;;5037909;28;20198;-64
2024/01/18 01:36:16;;;;;;;11.73;8.27;;;-2.30;99.90;;;;;;5006538;28;21027;-63
2024/01/18 01:38:43;;;;;;;14.37;8.87;;;-2.50;99.90;;;;;;5029174;28;20373;-64
2024/01/18 01:41:09;;;;;;;14.00;8.30;;;-2.50;99.90;;;;;;5031455;28;20200;-64
2024/01/18 01:43:36;;;;;;;14.17;7.80;;;-2.20;99.90;;;;;;5038502;28;20198;-63
2024/01/18 01:46:05;;;;;;;15.23;8.77;;;-2.70;99.90;;;;;;5033117;28;20576;-63
2024/01/18 01:48:31;;;;;;;12.83;8.00;;;-2.30;99.90;;;;;;5034657;28;20194;-63
2024/01/18 01:50:58;;;;;;;14.13;6.73;;;-2.40;99.90;;;;;;5012211;28;20205;-63
2024/01/18 01:53:25;;;;;;;14.37;9.23;;;-2.30;99.90;;;;;;5039036;28;20205;-64
2024/01/18 01:55:52;;;;;;;12.93;8.47;;;-2.30;99.90;;;;;;5030211;28;20227;-64
2024/01/18 01:58:21;;;;;;;15.97;9.23;;;-1.90;99.90;;;;;;5040340;28;20208;-63
2024/01/18 02:00:48;;;;;;;13.50;9.07;;;-2.20;99.90;;;;;;5041962;28;20203;-64
2024/01/18 02:03:16;;;;;;;11.67;7.90;;;-2.50;99.90;;;;;;5029438;28;20836;-63
2024/01/18 02:05:43;;;;;;;15.73;7.83;;;-2.30;99.90;;;;;;5006587;28;20703;-63
2024/01/18 02:08:11;;;;;;;14.33;7.40;;;-2.30;99.90;;;;;;5040437;28;20207;-63
2024/01/18 02:10:38;;;;;;;11.53;7.67;;;-2.50;99.90;;;;;;5031145;28;20387;-64
2024/01/18 02:13:05;;;;;;;12.07;6.80;;;-2.50;99.90;;;;;;5042972;28;20199;-63
2024/01/18 02:15:33;;;;;;;17.60;7.47;;;-2.90;99.90;;;;;;5043391;28;20574;-64
2024/01/18 02:18:00;;;;;;;16.43;8.47;;;-2.50;99.90;;;;;;5032197;28;20347;-63
2024/01/18 02:20:28;;;;;;;10.00;6.80;;;-2.50;99.90;;;;;;5038433;28;20195;-63
2024/01/18 02:22:57;;;;;;;10.07;6.97;;;-2.60;99.90;;;;;;5008164;28;20222;-63
2024/01/18 02:25:28;;;;;;;13.23;7.27;;;-2.70;99.90;;;;;;5034634;28;20382;-63
2024/01/18 02:27:56;;;;;;;9.20;6.73;;;-2.60;99.90;;;;;;5037943;28;20207;-63
2024/01/18 02:30:22;;;;;;;9.77;6.20;;;-2.40;99.90;;;;;;5038780;28;20206;-63
2024/01/18 02:32:50;;;;;;;12.33;6.97;;;-2.40;99.90;;;;;;5039023;28;20213;-63
2024/01/18 02:35:17;;;;;;;8.83;6.57;;;-2.40;99.90;;;;;;5026197;28;20230;-63
2024/01/18 02:37:44;;;;;;;13.63;7.03;;;-2.30;99.90;;;;;;5006114;28;20716;-63
2024/01/18 02:40:12;;;;;;;15.20;8.47;;;-2.20;99.90;;;;;;5026805;28;20214;-63
2024/01/18 02:42:40;;;;;;;10.43;7.40;;;-2.40;99.90;;;;;;5025583;28;20206;-63
2024/01/18 02:45:08;;;;;;;17.57;9.00;;;-2.30;99.90;;;;;;5025341;28;20219;-63
2024/01/18 02:47:36;;;;;;;13.90;7.53;;;-2.40;99.90;;;;;;5031985;28;20324;-64
2024/01/18 02:50:03;;;;;;;12.07;7.83;;;-2.50;99.90;;;;;;5028336;28;20207;-64
2024/01/18 02:52:30;;;;;;;12.87;8.00;;;;;;;;;;5009114;28;20202;-64
2024/01/18 02:54:57;;;;;;;10.63;6.80;;;-2.80;99.90;;;;;;5040745;28;20229;-63
2024/01/18 02:57:24;;;;;;;13.17;6.70;;;-3.00;99.90;;;;;;5023221;28;20207;-63
2024/01/18 02:59:52;;;;;;;9.50;6.23;;;-3.00;99.90;;;;;;5027561;28;20199;-63
2024/01/18 03:02:19;;;;;;;12.83;7.13;;;-3.20;99.90;;;;;;5035672;28;20674;-63
2024/01/18 03:04:46;;;;;;;11.87;7.10;;;-3.20;99.90;;;;;;5027243;28;21341;-64
2024/01/18 03:07:13;;;;;;;12.17;6.03;;;-3.20;99.90;;;;;;5036465;28;20208;-63
2024/01/18 03:09:40;;;;;;;12.07;6.80;;;-2.80;99.90;;;;;;5000341;28;20413;-63
2024/01/18 03:12:07;;;;;;;9.63;6.37;;;-2.90;99.90;;;;;;5039796;28;20534;-63
2024/01/18 03:14:34;;;;;;;9.20;6.20;;;-3.10;99.90;;;;;;5024439;28;20201;-63
2024/01/18 03:17:03;;;;;;;8.40;6.10;;;-3.20;99.90;;;;;;5041087;28;20226;-63
2024/01/18 03:19:30;;;;;;;8.43;6.13;;;-3.50;99.90;;;;;;5034597;28;20935;-63
2024/01/18 03:21:57;;;;;;;9.03;6.03;;;-3.50;99.90;;;;;;5029222;28;20211;-63
2024/01/18 03:24:23;;;;;;;7.97;5.93;;;-3.50;99.90;;;;;;5003865;28;20210;-63
2024/01/18 03:26:50;;;;;;;9.60;6.60;;;-3.60;99.90;;;;;;5037853;28;20389;-63
2024/01/18 03:29:17;;;;;;;7.63;5.83;;;;;;;;;;5027688;28;20197;-63
2024/01/18 03:31:44;;;;;;;7.47;5.47;;;-2.80;99.90;;;;;;5027680;28;20320;-63
2024/01/18 03:34:13;;;;;;;8.50;5.80;;;-3.60;99.90;;;;;;5033132;28;20752;-63
2024/01/18 03:36:39;;;;;;;7.50;5.83;;;-3.60;99.90;;;;;;5024164;28;20259;-63
2024/01/18 03:39:07;;;;;;;10.53;5.97;;;-3.50;99.90;;;;;;5042574;28;20219;-63
2024/01/18 03:41:35;;;;;;;7.70;5.80;;;-3.40;99.90;;;;;;5002706;28;20250;-63
2024/01/18 03:44:02;;;;;;;12.30;6.23;;;-3.40;99.90;;;;;;5028743;28;20222;-63
2024/01/18 03:46:29;;;;;;;8.80;5.93;;;-3.10;99.90;;;;;;5027161;28;20229;-63
2024/01/18 03:48:56;;;;;;;9.47;6.70;;;-3.20;99.90;;;;;;5043020;28;20291;-63
2024/01/18 03:51:24;;;;;;;13.13;6.97;;;-3.00;99.90;;;;;;5024434;28;20207;-63
2024/01/18 03:53:51;;;;;;;8.87;6.27;;;-2.90;99.90;;;;;;5023267;28;20207;-63
2024/01/18 03:56:18;;;;;;;12.23;7.47;;;-3.00;99.90;;;;;;5012336;28;20235;-63
2024/01/18 03:58:46;;;;;;;12.23;7.63;;;-3.00;99.90;;;;;;5034422;28;20454;-63
2024/01/18 04:01:13;;;;;;;13.23;6.93;;;-2.90;99.90;;;;;;5034772;28;20217;-63
2024/01/18 04:03:42;;;;;;;9.50;6.77;;;-3.30;99.90;;;;;;5037387;28;20424;-63
2024/01/18 04:06:11;;;;;;;10.37;7.13;;;-3.50;99.90;;;;;;5043093;28;20576;-63
2024/01/18 04:08:39;;;;;;;9.90;6.60;;;-3.60;99.90;;;;;;5025327;28;20263;-63
2024/01/18 04:11:06;;;;;;;11.30;7.10;;;-3.60;99.90;;;;;;5007066;28;21236;-63
2024/01/18 04:13:33;;;;;;;10.03;6.87;;;-3.90;99.90;;;;;;5031307;28;20205;-63
2024/01/18 04:16:00;;;;;;;13.37;5.90;;;-3.80;99.90;;;;;;5033381;28;20378;-63
2024/01/18 04:18:27;;;;;;;7.50;5.97;;;-4.50;99.90;;;;;;5039411;28;20560;-63
2024/01/18 04:20:54;;;;;;;8.43;6.10;;;-4.50;99.90;;;;;;5040825;28;20690;-63
2024/01/18 04:23:21;;;;;;;8.83;5.90;;;-4.20;99.90;;;;;;5040252;28;20199;-63
2024/01/18 04:25:51;;;;;;;7.60;6.10;;;-4.20;99.90;;;;;;5026021;28;21049;-63
2024/01/18 04:28:18;;;;;;;9.30;6.03;;;-4.10;99.90;;;;;;5007602;28;20350;-63
2024/01/18 04:30:45;;;;;;;10.90;6.80;;;-4.00;99.90;;;;;;5018540;28;20659;-63
2024/01/18 04:33:12;;;;;;;7.73;5.87;;;-4.20;99.90;;;;;;5042055;28;20225;-63
2024/01/18 04:35:39;;;;;;;7.90;5.87;;;-4.10;99.90;;;;;;5014338;28;20612;-63
2024/01/18 04:38:07;;;;;;;10.10;6.57;;;-4.00;99.90;;;;;;5032557;28;20208;-63
2024/01/18 04:40:34;;;;;;;7.77;5.63;;;-3.90;99.90;;;;;;5017880;28;20235;-63
2024/01/18 04:43:02;;;;;;;12.73;6.33;;;-2.90;99.90;;;;;;5001794;28;20205;-63
2024/01/18 04:45:29;;;;;;;8.20;6.13;;;-3.80;99.90;;;;;;5037588;28;20201;-63
2024/01/18 04:47:56;;;;;;;12.80;6.13;;;-3.70;99.90;;;;;;5032625;28;20233;-63
2024/01/18 04:50:24;;;;;;;9.10;5.60;;;-3.80;99.90;;;;;;5020059;28;20217;-63
2024/01/18 04:52:51;;;;;;;7.87;5.47;;;-3.70;99.90;;;;;;5037183;28;20234;-63
2024/01/18 04:55:18;;;;;;;9.60;5.40;;;-3.60;99.90;;;;;;5031318;28;20494;-63
2024/01/18 04:57:46;;;;;;;8.03;5.30;;;-3.70;99.90;;;;;;5030825;28;20225;-63
2024/01/18 05:00:16;;;;;;;9.87;5.70;;;-3.60;99.90;;;;;;4995141;28;20305;-62
2024/01/18 05:02:44;;;;;;;8.40;5.53;;;-3.50;99.90;;;;;;5030897;28;20205;-63
2024/01/18 05:05:12;;;;;;;7.87;5.70;;;-3.50;99.90;;;;;;5027420;28;20209;-63
2024/01/18 05:07:40;;;;;;;10.20;5.17;;;-3.10;99.90;;;;;;5041916;28;20201;-63
2024/01/18 05:10:09;;;;;;;7.13;5.07;;;-3.40;99.90;;;;;;5036391;28;20224;-63
2024/01/18 05:12:37;;;;;;;9.13;5.50;;;-3.60;99.90;;;;;;5027883;28;20753;-63
2024/01/18 05:15:04;;;;;;;7.30;5.10;;;-3.60;99.90;;;;;;5011461;28;20453;-63
2024/01/18 05:17:35;;;;;;;7.13;5.30;;;-3.70;99.90;;;;;;5032345;28;21373;-63
2024/01/18 05:20:04;;;;;;;10.23;6.47;;;-3.50;99.90;;;;;;5032128;28;20258;-63
2024/01/18 05:22:31;;;;;;;8.13;5.93;;;-4.30;99.90;;;;;;5039089;28;20196;-62
2024/01/18 05:24:59;;;;;;;7.13;4.93;;;-3.70;99.90;;;;;;5036992;28;20578;-63
2024/01/18 05:27:29;;;;;;;7.27;5.17;;;-3.90;99.90;;;;;;5027594;28;24073;-63
2024/01/18 05:29:56;;;;;;;8.00;5.00;;;-4.10;99.90;;;;;;5033548;28;20465;-63
2024/01/18 05:32:23;;;;;;;7.10;4.87;;;-3.60;99.90;;;;;;5018349;28;20283;-63
2024/01/18 05:34:52;;;;;;;7.30;4.83;;;-3.90;99.90;;;;;;5028516;28;20201;-63
2024/01/18 05:37:22;;;;;;;8.13;4.60;;;-3.70;99.90;;;;;;5027580;28;20228;-63
2024/01/18 05:39:50;;;;;;;9.63;4.60;;;-3.70;99.90;;;;;;5033700;28;20201;-63
2024/01/18 05:42:18;;;;;;;6.67;5.33;;;-3.60;99.90;;;;;;5032319;28;21177;-63
2024/01/18 05:44:45;;;;;;;5.40;4.20;;;-3.80;99.90;;;;;;5023293;28;20796;-63
2024/01/18 05:47:12;;;;;;;5.50;4.30;;;-3.60;99.90;;;;;;4996278;28;20234;-63
2024/01/18 05:49:39;;;;;;;9.10;4.50;;;-3.30;99.90;;;;;;5029801;28;20949;-63
2024/01/18 05:52:08;;;;;;;7.47;4.63;;;-3.40;99.90;;;;;;5002837;28;20417;-63
2024/01/18 05:54:35;;;;;;;7.10;4.37;;;;;;;;;;5026154;28;21545;-63
2024/01/18 05:57:02;;;;;;;6.43;4.20;;;-3.10;99.90;;;;;;5000110;28;20414;-63
2024/01/18 05:59:29;;;;;;;6.20;3.37;;;-3.20;99.90;;;;;;5019143;28;20201;-63
2024/01/18 06:01:56;;;;;;;5.63;4.13;;;-3.40;99.90;;;;;;4994925;28;20247;-63
2024/01/18 06:04:24;;;;;;;6.73;3.97;;;-3.00;99.90;;;;;;5023051;28;20230;-63
2024/01/18 06:06:51;;;;;;;10.20;4.47;;;-3.10;99.90;;;;;;5031739;28;20304;-63
2024/01/18 06:09:19;;;;;;;7.50;4.60;;;-3.30;99.90;;;;;;5027475;28;20213;-62
2024/01/18 06:11:47;;;;;;;8.30;4.47;;;-3.20;99.90;;;;;;4991690;28;20236;-62
2024/01/18 06:14:15;;;;;;;6.17;4.27;;;-3.20;99.90;;;;;;5012546;28;20217;-63
2024/01/18 06:16:42;;;;;;;5.40;4.00;;;-3.20;99.90;;;;;;4984770;28;20280;-62
2024/01/18 06:19:11;;;;;;;7.23;5.03;;;-3.30;99.90;;;;;;5034822;28;20213;-63
2024/01/18 06:21:38;;;;;;;9.40;5.10;;;-3.20;99.90;;;;;;5021675;28;20235;-63
2024/01/18 06:24:06;;;;;;;7.77;5.50;;;-3.60;99.90;;;;;;5038320;28;20593;-62
2024/01/18 06:26:34;;;;;;;8.47;4.83;;;-3.60;99.90;;;;;;5033702;28;20201;-63
2024/01/18 06:29:03;;;;;;;7.83;5.33;;;-3.40;99.90;;;;;;5027363;28;20194;-63
2024/01/18 06:31:29;;;;;;;5.67;4.57;;;-3.80;99.90;;;;;;5003069;28;20863;-63
2024/01/18 06:33:57;;;;;;;7.03;4.73;;;-3.70;99.90;;;;;;5021780;28;20209;-63
2024/01/18 06:36:23;;;;;;;4.73;3.80;;;-3.70;99.90;;;;;;5031999;28;20228;-62
2024/01/18 06:38:50;;;;;;;5.30;3.90;;;-3.70;99.90;;;;;;5034560;28;20390;-63
2024/01/18 06:41:19;;;;;;;6.20;4.40;;;-3.70;99.90;;;;;;5044290;28;20201;-63
2024/01/18 06:43:48;;;;;;;7.50;4.30;;;-3.70;99.90;;;;;;5040536;28;20200;-62
2024/01/18 06:46:17;;;;;;;5.83;4.20;;;-3.70;99.90;;;;;;5026728;28;20236;-63
2024/01/18 06:48:45;;;;;;;6.40;4.77;;;-3.80;99.90;;;;;;4993077;28;20213;-63
2024/01/18 06:51:14;;;;;;;9.03;5.20;;;-3.60;99.90;;;;;;5031189;28;20212;-63
2024/01/18 06:53:42;;;;;;;12.77;6.07;;;-3.90;99.90;;;;;;5032372;28;20217;-63
2024/01/18 06:56:11;;;;;;;12.17;6.40;;;-3.80;99.90;;;;;;5040473;28;20228;-62
2024/01/18 06:58:39;;;;;;;10.23;7.03;;;-4.30;99.90;;;;;;5037797;28;20681;-62
2024/01/18 07:01:07;;;;;;;18.87;10.77;;;-4.10;99.90;;;;;;5018506;28;20222;-62
2024/01/18 07:03:35;;;;;;;13.07;7.87;;;-4.10;99.90;;;;;;4998877;28;20279;-63
2024/01/18 07:06:02;;;;;;;10.60;6.00;;;-4.20;99.90;;;;;;5028894;28;20991;-63
2024/01/18 07:08:30;;;;;;;10.00;5.63;;;-4.20;99.90;;;;;;5034755;28;20568;-63
2024/01/18 07:10:57;;;;;;;8.03;5.13;;;-4.30;99.90;;;;;;5034908;28;20230;-62
2024/01/18 07:13:24;;;;;;;13.33;7.00;;;-4.50;99.90;;;;;;5036425;28;20204;-62
2024/01/18 07:15:51;;;;;;;12.50;5.97;;;-4.50;99.90;;;;;;5021785;28;20207;-63
2024/01/18 07:18:20;;;;;;;10.77;5.10;;;-4.40;99.90;;;;;;5001925;28;20236;-63
2024/01/18 07:20:47;;;;;;;24.93;12.63;;;-4.50;99.90;;;;;;5030695;28;20638;-63
2024/01/18 07:23:14;;;;;;;21.87;9.63;;;-4.50;99.90;;;;;;4996363;28;20227;-62
2024/01/18 07:25:41;;;;;;;30.40;13.47;;;-4.40;99.90;;;;;;5012240;28;20364;-62
2024/01/18 07:28:08;;;;;;;19.07;8.23;;;-4.50;99.90;;;;;;5013951;28;21191;-63
2024/01/18 07:30:35;;;;;;;13.10;7.40;;;-5.60;99.90;;;;;;5027155;28;21474;-63
2024/01/18 07:33:01;;;;;;;9.10;5.67;;;-4.40;99.90;;;;;;5021880;28;20197;-62
2024/01/18 07:35:30;;;;;;;6.43;4.10;;;-4.40;99.90;;;;;;4995976;28;20665;-62
2024/01/18 07:37:58;;;;;;;6.77;4.10;;;-4.70;99.90;;;;;;5018876;28;20410;-62
2024/01/18 07:40:25;;;;;;;6.07;3.77;;;;;;;;;;5013758;28;20201;-63
2024/01/18 07:42:52;;;;;;;4.60;3.00;;;-4.20;99.90;;;;;;5027645;28;21124;-62
2024/01/18 07:45:20;;;;;;;3.90;2.90;;;-4.00;99.90;;;;;;5024610;28;20948;-62
2024/01/18 07:47:47;;;;;;;3.77;2.80;;;-3.80;99.90;;;;;;5018440;28;20513;-63
2024/01/18 07:50:14;;;;;;;6.07;3.83;;;-3.80;99.90;;;;;;5006347;28;20208;-62
2024/01/18 07:52:43;;;;;;;7.73;3.63;;;-3.50;99.90;;;;;;5021925;28;20556;-63
2024/01/18 07:55:10;;;;;;;4.23;2.97;;;-3.40;99.90;;;;;;5027952;28;20201;-63
2024/01/18 07:57:37;;;;;;;6.37;3.33;;;-3.50;99.90;;;;;;5031219;28;20225;-63
2024/01/18 08:00:05;;;;;;;10.30;3.63;;;-3.30;99.90;;;;;;5039201;28;20248;-63
2024/01/18 08:02:31;;;;;;;6.37;3.33;;;-3.30;99.90;;;;;;5019138;28;20189;-62
2024/01/18 08:04:58;;;;;;;7.33;3.10;;;-3.30;99.90;;;;;;4991970;28;20219;-62
2024/01/18 08:07:25;;;;;;;3.97;3.10;;;-3.30;99.90;;;;;;5022495;28;20200;-62
2024/01/18 08:09:53;;;;;;;6.23;3.57;;;-4.00;99.90;;;;;;5026066;28;20212;-62
2024/01/18 08:12:20;;;;;;;5.73;3.20;;;-3.10;99.90;;;;;;5022395;28;20216;-62
2024/01/18 08:14:47;;;;;;;8.90;3.67;;;-3.10;99.90;;;;;;5034378;28;20303;-63
2024/01/18 08:17:14;;;;;;;4.33;3.20;;;-3.10;99.90;;;;;;5035306;28;20235;-62
2024/01/18 08:19:41;;;;;;;5.50;3.27;;;-2.70;99.90;;;;;;5021234;28;20216;-62
2024/01/18 08:22:11;;;;;;;4.33;3.13;;;-2.70;99.90;;;;;;4998574;28;20370;-63
2024/01/18 08:24:39;;;;;;;3.70;2.93;;;-2.80;99.90;;;;;;5038161;28;20198;-63
2024/01/18 08:27:07;;;;;;;4.00;2.93;;;-2.90;99.90;;;;;;5030504;28;20201;-63
2024/01/18 08:29:34;;;;;;;6.50;3.30;;;-2.80;99.90;;;;;;5039822;28;20217;-63
2024/01/18 08:32:02;;;;;;;6.30;3.33;;;-2.90;99.90;;;;;;5033740;28;20498;-63
2024/01/18 08:34:28;;;;;;;7.17;4.03;;;-2.90;99.90;;;;;;5040545;28;20680;-63
2024/01/18 08:36:55;;;;;;;10.67;4.50;;;-3.00;99.90;;;;;;5006865;28;20217;-63
2024/01/18 08:39:22;;;;;;;5.17;3.33;;;-3.00;99.90;;;;;;5044253;28;20398;-63
2024/01/18 08:41:49;;;;;;;4.63;3.50;;;-3.10;99.90;;;;;;5037156;28;20301;-63
2024/01/18 08:44:18;;;;;;;5.10;3.40;;;-3.00;99.90;;;;;;5045744;28;20193;-63
2024/01/18 08:46:44;;;;;;;4.73;3.23;;;-2.90;99.90;;;;;;5039074;28;20269;-63
2024/01/18 08:49:11;;;;;;;7.57;3.07;;;-2.80;99.90;;;;;;5045649;28;20404;-63
2024/01/18 08:51:39;;;;;;;4.23;2.90;;;;;;;;;;5042664;28;21202;-63
2024/01/18 08:54:06;;;;;;;8.57;5.17;;;-3.20;99.90;;;;;;5016276;28;20366;-62
2024/01/18 08:56:35;;;;;;;5.23;3.70;;;-2.60;99.90;;;;;;5039965;28;20220;-62
2024/01/18 08:59:01;;;;;;;7.93;5.27;;;-2.40;99.90;;;;;;5042418;28;20232;-64
2024/01/18 09:01:30;;;;;;;9.33;5.10;;;-2.30;99.90;;;;;;5051068;28;20197;-62
2024/01/18 09:03:56;;;;;;;8.10;5.63;;;-2.40;99.90;;;;;;5027098;28;20597;-63
2024/01/18 09:06:23;;;;;;;6.67;4.67;;;-2.40;99.90;;;;;;5044380;28;20202;-63
2024/01/18 09:08:50;;;;;;;4.37;3.57;;;-2.30;99.90;;;;;;5004114;28;20205;-63
2024/01/18 09:11:17;;;;;;;4.47;3.00;;;-2.20;99.90;;;;;;5051092;28;20438;-62
2024/01/18 09:13:44;;;;;;;5.30;2.90;;;;;;;;;;5033145;28;20806;-63
2024/01/18 09:16:16;;;;;;;4.77;2.93;;;-2.00;99.90;;;;;;5040830;28;20201;-63
2024/01/18 09:18:44;;;;;;;4.30;3.30;;;-1.60;99.90;;;;;;5046263;28;20719;-62
2024/01/18 09:21:11;;;;;;;9.03;3.30;;;-2.00;99.90;;;;;;5044305;28;20352;-63
2024/01/18 09:23:38;;;;;;;5.60;3.27;;;-2.00;99.90;;;;;;5029208;28;20196;-63
2024/01/18 09:26:05;;;;;;;4.47;2.20;;;-0.80;99.90;;;;;;5020029;28;20334;-63
2024/01/18 09:28:32;;;;;;;2.50;2.10;;;-1.70;99.90;;;;;;5033758;28;20222;-63
2024/01/18 09:30:59;;;;;;;3.60;2.80;;;-0.90;99.90;;;;;;5038525;28;20661;-63
2024/01/18 09:33:26;;;;;;;4.90;2.97;;;-1.70;99.90;;;;;;5046093;28;20804;-63
2024/01/18 09:35:54;;;;;;;3.77;2.43;;;-1.50;99.90;;;;;;5036745;28;20315;-63
2024/01/18 09:38:21;;;;;;;5.10;2.87;;;-1.60;99.90;;;;;;5045699;28;20225;-63
2024/01/18 09:40:49;;;;;;;6.37;3.43;;;-1.50;99.90;;;;;;5012343;28;20203;-63
2024/01/18 09:43:17;;;;;;;4.17;3.17;;;-1.40;99.90;;;;;;5041661;28;20191;-63
2024/01/18 09:45:48;;;;;;;3.40;2.63;;;-1.40;99.90;;;;;;5035780;28;20971;-63
2024/01/18 09:48:15;;;;;;;4.57;2.80;;;-1.30;99.90;;;;;;5045318;28;20219;-63
2024/01/18 09:50:45;;;;;;;4.47;2.90;;;-1.40;99.90;;;;;;5041115;28;20210;-63
2024/01/18 09:53:13;;;;;;;3.93;2.90;;;-0.40;99.90;;;;;;5038785;28;20202;-63
2024/01/18 09:55:40;;;;;;;5.70;3.10;;;-1.40;99.90;;;;;;5007647;28;20213;-63
2024/01/18 09:58:13;;;;;;;3.93;2.93;;;-1.30;99.90;;;;;;5039058;28;20247;-63
2024/01/18 10:00:44;;;;;;;3.77;3.07;;;-1.30;99.90;;;;;;5029010;28;20305;-63
2024/01/18 10:03:11;;;;;;;4.10;3.37;;;-1.20;99.90;;;;;;5039439;28;20203;-63
2024/01/18 10:05:38;;;;;;;7.87;4.33;;;-1.20;99.90;;;;;;5043177;28;20198;-63
2024/01/18 10:08:05;;;;;;;4.83;3.73;;;-1.00;99.90;;;;;;5035874;28;21629;-63
2024/01/18 10:10:34;;;;;;;9.77;6.23;;;-1.30;99.90;;;;;;5008003;28;20330;-63
2024/01/18 10:13:02;;;;;;;11.87;5.47;;;-1.20;99.90;;;;;;5040101;28;20199;-63
2024/01/18 10:15:32;;;;;;;9.27;4.73;;;-1.10;99.90;;;;;;5029924;28;20214;-63
2024/01/18 10:17:59;;;;;;;6.10;3.90;;;-1.20;99.90;;;;;;5042934;28;20233;-63
2024/01/18 10:20:27;;;;;;;7.30;4.77;;;-1.00;99.90;;;;;;5040212;28;20408;-63
2024/01/18 10:22:55;;;;;;;17.60;9.70;;;-1.00;99.90;;;;;;5044200;28;20195;-63
2024/01/18 10:25:24;;;;;;;8.83;5.77;;;-1.00;99.90;;;;;;5040260;28;20208;-63
2024/01/18 10:27:53;;;;;;;7.17;4.83;;;-1.00;99.90;;;;;;5023287;28;20208;-63
2024/01/18 10:30:21;;;;;;;7.63;4.53;;;0.60;99.90;;;;;;5032683;28;20249;-63
2024/01/18 10:32:48;;;;;;;4.87;3.73;;;-0.90;99.90;;;;;;5044248;28;20210;-63
2024/01/18 10:35:24;;;;;;;9.67;3.83;;;-0.90;99.90;;;;;;5038763;28;20195;-63
2024/01/18 10:38:03;;;;;;;4.67;3.20;;;-0.70;99.90;;;;;;5040069;28;20352;-63
2024/01/18 10:40:31;;;;;;;5.83;3.40;;;-0.80;99.90;;;;;;5037342;28;20625;-64
2024/01/18 10:42:59;;;;;;;3.50;2.97;;;-0.60;99.90;;;;;;5013896;28;20215;-63
2024/01/18 10:45:29;;;;;;;6.60;2.50;;;-0.70;99.90;;;;;;5041164;28;20221;-63
2024/01/18 10:47:56;;;;;;;6.27;2.80;;;-0.70;99.90;;;;;;5033439;28;20349;-63
2024/01/18 10:50:23;;;;;;;3.17;2.87;;;-0.70;99.90;;;;;;5040625;28;20200;-63
2024/01/18 10:52:51;;;;;;;2.80;2.40;;;-0.40;99.90;;;;;;5046619;28;20226;-63
2024/01/18 10:55:18;;;;;;;4.10;3.03;;;-0.50;99.90;;;;;;5042841;28;20818;-63
2024/01/18 10:57:45;;;;;;;6.63;3.03;;;-0.50;99.90;;;;;;5045774;28;20216;-63
2024/01/18 11:00:15;;;;;;;6.13;3.40;;;-0.40;99.90;;;;;;5006538;28;20221;-63
2024/01/18 11:02:44;;;;;;;4.87;2.87;;;-0.40;99.90;;;;;;5031202;28;20203;-63
2024/01/18 11:05:14;;;;;;;3.63;2.80;;;0.20;99.90;;;;;;5041043;28;20290;-63
2024/01/18 11:07:41;;;;;;;7.47;3.47;;;-0.60;99.90;;;;;;5037886;28;20201;-62
2024/01/18 11:10:11;;;;;;;5.93;3.10;;;-0.40;99.90;;;;;;5039402;28;20694;-63
2024/01/18 11:12:40;;;;;;;3.50;2.73;;;-0.50;99.90;;;;;;5040325;28;20281;-63
2024/01/18 11:15:10;;;;;;;4.07;2.93;;;-0.40;99.90;;;;;;5006508;28;20216;-63
2024/01/18 11:17:44;;;;;;;3.00;2.30;;;-0.30;99.90;;;;;;5030736;28;20230;-63
2024/01/18 11:20:12;;;;;;;2.30;2.03;;;-0.20;99.90;;;;;;5037419;28;20290;-63
2024/01/18 11:22:39;;;;;;;2.80;2.13;;;0.00;99.90;;;;;;5048365;28;20204;-63
2024/01/18 11:25:07;;;;;;;1.93;1.57;;;0.20;99.90;;;;;;5039261;28;20203;-63
2024/01/18 11:27:39;;;;;;;6.13;2.80;;;0.10;99.90;;;;;;5042665;28;20197;-63
2024/01/18 11:30:09;;;;;;;4.43;2.83;;;0.10;99.90;;;;;;5005810;28;21106;-63
2024/01/18 11:32:36;;;;;;;2.73;2.33;;;0.10;99.90;;;;;;5049429;28;20688;-63
2024/01/18 11:35:11;;;;;;;2.93;1.70;;;0.30;99.90;;;;;;5030537;28;20201;-63
2024/01/18 11:37:39;;;;;;;3.70;1.60;;;0.20;99.90;;;;;;5044053;28;20209;-63
2024/01/18 11:40:10;;;;;;;4.37;1.43;;;0.30;99.90;;;;;;5036314;28;20207;-63
2024/01/18 11:42:40;;;;;;;3.63;1.30;;;0.30;99.90;;;;;;5046870;28;20198;-63
2024/01/18 11:45:17;;;;;;;3.73;1.40;;;0.50;99.90;;;;;;5006457;28;21108;-63
2024/01/18 11:47:45;;;;;;;2.00;1.30;;;0.50;99.90;;;;;;5045493;28;20224;-63
2024/01/18 11:50:13;;;;;;;2.83;1.07;;;0.60;99.90;;;;;;5027156;28;20205;-64
2024/01/18 11:52:42;;;;;;;3.20;1.30;;;0.70;99.90;;;;;;5046938;28;20209;-64
2024/01/18 11:55:11;;;;;;;0.80;0.80;;;0.80;99.90;;;;;;5037469;28;20194;-63
2024/01/18 11:57:38;;;;;;;0.70;0.70;;;0.80;99.90;;;;;;5050818;28;20194;-63
2024/01/18 12:00:06;;;;;;;1.57;0.80;;;0.80;99.90;;;;;;5008410;28;20760;-63
2024/01/18 12:02:33;;;;;;;1.30;0.93;;;0.80;99.90;;;;;;5042685;28;20282;-63
2024/01/18 12:05:00;;;;;;;1.13;0.87;;;0.80;99.90;;;;;;5034072;28;20205;-63
2024/01/18 12:07:29;;;;;;;0.77;0.77;;;0.80;99.90;;;;;;5042929;28;20227;-63
2024/01/18 12:09:57;;;;;;;2.47;1.20;;;0.70;99.90;;;;;;5041479;28;20319;-63
2024/01/18 12:12:24;;;;;;;3.73;1.00;;;0.60;99.90;;;;;;5042593;28;20525;-64
2024/01/18 12:14:51;;;;;;;2.57;1.17;;;0.80;99.90;;;;;;5050004;28;20852;-64
2024/01/18 12:17:18;;;;;;;0.63;0.63;;;0.00;99.90;;;;;;5013116;28;20398;-64
2024/01/18 12:19:46;;;;;;;0.80;0.80;;;0.80;99.90;;;;;;5038040;28;20259;-63
2024/01/18 12:22:14;;;;;;;0.70;0.70;;;0.80;99.90;;;;;;5039270;28;20219;-64
2024/01/18 12:24:43;;;;;;;1.10;1.00;;;0.70;99.90;;;;;;5044689;28;20204;-64
2024/01/18 12:27:10;;;;;;;0.87;0.77;;;0.90;99.90;;;;;;5042152;28;20195;-64
2024/01/18 12:29:38;;;;;;;0.83;0.80;;;1.00;99.90;;;;;;5042965;28;20224;-64
2024/01/18 12:32:06;;;;;;;1.00;0.90;;;1.10;99.90;;;;;;5008032;28;20226;-63
2024/01/18 12:34:33;;;;;;;1.33;1.00;;;0.90;99.90;;;;;;5011291;28;20580;-64
2024/01/18 12:37:00;;;;;;;0.80;0.80;;;1.00;99.90;;;;;;5009224;28;20417;-64
2024/01/18 12:39:27;;;;;;;0.93;0.70;;;0.80;99.90;;;;;;5029493;28;20236;-64
2024/01/18 12:41:56;;;;;;;1.30;1.03;;;0.80;99.90;;;;;;5011707;28;20584;-65
2024/01/18 12:44:23;;;;;;;0.83;0.83;;;1.60;99.90;;;;;;5030321;28;20394;-64
2024/01/18 12:46:52;;;;;;;2.23;1.13;;;1.00;99.90;;;;;;4997291;28;20825;-64
2024/01/18 12:49:19;;;;;;;0.80;0.80;;;0.60;99.90;;;;;;5013850;28;20376;-64